Time;durP1;ratioP1;P1;durP2;ratioP2;P2;SDS_P1;SDS_P2;PMS_P1;PMS_P2;Temp;Humidity;BMP_temperature;BMP_pressure;BME280_temperature;BME280_humidity;BME280_pressure;Samples;Min_cycle;Max_cycle;Signal;HPM_P1;HPM_P2
2022/11/28 00:02:25;;;;;;;38.53;21.67;;;3.80;69.20;;;;;;5005148;28;116291;-80
2022/11/28 00:04:53;;;;;;;42.45;23.13;;;3.80;69.10;;;;;;5022488;28;116500;-81
2022/11/28 00:07:20;;;;;;;38.28;21.23;;;3.80;69.30;;;;;;5025910;28;114459;-81
2022/11/28 00:09:48;;;;;;;40.53;22.85;;;3.90;69.30;;;;;;5032407;27;116029;-81
2022/11/28 00:12:18;;;;;;;45.70;24.00;;;3.90;69.50;;;;;;5024942;28;115776;-80
2022/11/28 00:14:45;;;;;;;43.75;23.63;;;4.00;69.50;;;;;;5025987;27;114582;-81
2022/11/28 00:17:12;;;;;;;42.65;24.23;;;4.00;69.40;;;;;;5026065;28;114366;-81
2022/11/28 00:19:40;;;;;;;47.03;24.98;;;4.00;69.50;;;;;;5027016;28;115992;-81
2022/11/28 00:22:07;;;;;;;44.92;25.30;;;4.10;69.50;;;;;;5007408;28;115360;-81
2022/11/28 00:24:34;;;;;;;41.10;24.67;;;4.10;69.50;;;;;;5005357;28;114740;-81
2022/11/28 00:27:01;;;;;;;41.75;23.30;;;4.20;69.40;;;;;;4988142;28;114500;-80
2022/11/28 00:29:29;;;;;;;43.65;25.67;;;4.20;69.40;;;;;;4997473;28;116408;-80
2022/11/28 00:31:56;;;;;;;44.58;24.10;;;4.20;69.40;;;;;;5024253;28;115227;-80
2022/11/28 00:34:23;;;;;;;43.88;25.35;;;4.20;69.40;;;;;;5024122;28;114691;-80
2022/11/28 00:36:50;;;;;;;47.65;24.90;;;4.30;69.40;;;;;;5025358;28;114390;-80
2022/11/28 00:39:19;;;;;;;43.58;24.38;;;4.30;69.40;;;;;;5026780;28;114522;-80
2022/11/28 00:41:46;;;;;;;46.38;25.08;;;4.30;69.20;;;;;;5006862;28;115769;-81
2022/11/28 00:44:13;;;;;;;42.65;23.88;;;4.30;69.30;;;;;;5024054;28;114694;-81
2022/11/28 00:46:40;;;;;;;40.42;22.33;;;4.40;69.10;;;;;;5024927;28;114790;-82
2022/11/28 00:49:08;;;;;;;35.60;19.27;;;4.40;68.90;;;;;;5024869;28;114602;-80
2022/11/28 00:51:35;;;;;;;36.63;20.42;;;4.30;68.70;;;;;;5025122;28;115115;-80
2022/11/28 00:54:05;;;;;;;36.00;18.50;;;4.30;68.70;;;;;;5025660;28;114717;-80
2022/11/28 00:56:35;;;;;;;30.92;18.17;;;4.30;68.60;;;;;;5025177;28;114505;-81
2022/11/28 00:59:02;;;;;;;29.30;17.67;;;4.30;68.40;;;;;;5005094;27;114308;-81
2022/11/28 01:01:37;;;;;;;31.35;17.92;;;4.30;68.60;;;;;;5004224;28;115234;-81
2022/11/28 01:04:07;;;;;;;29.95;16.23;;;4.20;68.40;;;;;;4985611;28;114836;-81
2022/11/28 01:06:43;;;;;;;29.83;16.40;;;4.20;68.30;;;;;;5005233;28;114581;-81
2022/11/28 01:09:21;;;;;;;29.77;17.40;;;4.20;68.20;;;;;;5005186;28;114548;-82
2022/11/28 01:11:50;;;;;;;26.50;15.18;;;4.20;68.40;;;;;;4989284;28;115178;-81
2022/11/28 01:14:22;;;;;;;26.88;15.65;;;4.20;68.30;;;;;;5005343;28;114571;-81
2022/11/28 01:16:49;;;;;;;27.67;15.90;;;4.20;68.10;;;;;;4969884;28;114526;-80
2022/11/28 01:19:16;;;;;;;26.65;16.52;;;4.20;68.30;;;;;;5006147;28;114430;-80
2022/11/28 01:21:43;;;;;;;26.60;15.20;;;4.10;68.20;;;;;;5004014;28;115003;-80
2022/11/28 01:24:11;;;;;;;25.65;14.43;;;4.10;68.20;;;;;;5003750;28;114754;-80
2022/11/28 01:26:39;;;;;;;24.85;14.63;;;4.20;68.20;;;;;;5004896;28;114413;-80
2022/11/28 01:29:06;;;;;;;24.98;14.18;;;4.10;68.10;;;;;;5038008;27;118284;-80
2022/11/28 01:31:33;;;;;;;29.52;15.43;;;4.20;68.00;;;;;;5025341;27;115020;-81
2022/11/28 01:34:00;;;;;;;25.25;14.27;;;4.20;68.10;;;;;;5020828;27;115768;-81
2022/11/28 01:36:28;;;;;;;26.00;14.45;;;4.20;68.00;;;;;;5009290;28;114322;-81
2022/11/28 01:38:55;;;;;;;24.65;13.65;;;4.20;68.10;;;;;;5008536;28;120642;-82
2022/11/28 01:41:24;;;;;;;24.50;13.82;;;4.20;68.10;;;;;;5008351;28;115079;-81
2022/11/28 01:44:14;;;;;;;24.17;14.10;;;4.20;68.00;;;;;;5007197;28;115213;-82
2022/11/28 01:46:42;;;;;;;28.17;14.38;;;4.30;67.80;;;;;;5000679;28;118637;-82
2022/11/28 01:49:32;;;;;;;23.30;13.13;;;4.20;67.80;;;;;;4972543;28;115286;-81
2022/11/28 01:52:03;;;;;;;26.92;14.73;;;4.30;67.50;;;;;;5007837;28;115294;-81
2022/11/28 01:54:31;;;;;;;22.58;13.25;;;4.20;67.70;;;;;;5006846;28;115786;-80
2022/11/28 01:57:06;;;;;;;21.85;13.13;;;4.10;67.90;;;;;;4974696;28;114506;-80
2022/11/28 01:59:38;;;;;;;25.33;14.00;;;4.10;67.90;;;;;;5001164;28;114636;-81
2022/11/28 02:02:12;;;;;;;23.40;13.52;;;4.20;67.80;;;;;;4989247;28;115695;-81
2022/11/28 02:04:39;;;;;;;23.27;13.65;;;4.20;67.80;;;;;;5006987;28;114593;-81
2022/11/28 02:07:07;;;;;;;24.88;13.80;;;4.20;68.00;;;;;;5007788;28;114628;-81
2022/11/28 02:09:34;;;;;;;23.48;13.70;;;4.20;68.00;;;;;;5009044;28;114622;-82
2022/11/28 02:12:44;;;;;;;21.45;12.65;;;4.20;67.90;;;;;;5007679;28;115188;-81
2022/11/28 02:15:39;;;;;;;23.15;12.57;;;4.20;67.80;;;;;;5007790;28;115832;-81
2022/11/28 02:18:30;;;;;;;24.38;13.80;;;4.20;67.90;;;;;;5011060;28;114421;-80
2022/11/28 02:21:31;;;;;;;21.10;12.80;;;4.30;68.10;;;;;;5028805;28;114619;-81
2022/11/28 02:24:39;;;;;;;20.30;12.00;;;4.30;67.90;;;;;;5026346;28;115360;-80
2022/11/28 02:28:02;;;;;;;23.77;13.38;;;4.30;68.00;;;;;;5026393;28;114694;-81
2022/11/28 02:31:32;;;;;;;20.60;12.68;;;4.20;67.90;;;;;;5028430;28;114378;-81
2022/11/28 02:34:03;;;;;;;25.05;13.02;;;4.20;67.90;;;;;;4949380;28;114797;-81
2022/11/28 02:36:39;;;;;;;22.30;13.35;;;4.20;68.00;;;;;;4933033;28;115469;-81
2022/11/28 02:39:26;;;;;;;21.10;12.57;;;4.20;67.90;;;;;;4967667;28;114622;-82
2022/11/28 02:42:19;;;;;;;22.30;13.18;;;4.20;67.80;;;;;;4988969;28;114545;-81
2022/11/28 02:45:06;;;;;;;23.83;13.73;;;4.20;67.50;;;;;;4993114;28;114514;-81
2022/11/28 02:47:42;;;;;;;22.60;12.70;;;4.10;67.80;;;;;;4972229;28;115667;-81
2022/11/28 02:50:31;;;;;;;19.65;11.77;;;4.10;67.90;;;;;;4972109;28;114985;-81
2022/11/28 02:53:25;;;;;;;23.88;13.50;;;4.10;68.00;;;;;;4990884;28;116153;-81
2022/11/28 02:55:52;;;;;;;19.52;11.35;;;4.20;67.90;;;;;;4986249;28;114382;-81
2022/11/28 02:58:19;;;;;;;21.48;13.15;;;4.10;67.80;;;;;;4986932;28;115078;-81
2022/11/28 03:00:47;;;;;;;23.52;13.77;;;4.10;67.80;;;;;;4988466;28;118895;-81
2022/11/28 03:03:26;;;;;;;21.77;11.65;;;4.00;67.80;;;;;;4955945;28;114519;-81
2022/11/28 03:06:44;;;;;;;24.80;13.45;;;4.10;67.70;;;;;;5007575;28;114666;-81
2022/11/28 03:09:33;;;;;;;26.50;14.23;;;3.90;67.30;;;;;;5005748;27;115105;-81
2022/11/28 03:12:46;;;;;;;22.98;13.70;;;3.70;67.70;;;;;;5004598;28;114683;-81
2022/11/28 03:15:13;;;;;;;23.70;13.70;;;3.60;68.00;;;;;;5007397;28;114471;-81
2022/11/28 03:18:03;;;;;;;27.98;14.45;;;3.50;68.30;;;;;;5005426;28;114644;-81
2022/11/28 03:21:29;;;;;;;26.55;15.35;;;3.50;68.30;;;;;;5005729;28;115172;-81
2022/11/28 03:24:23;;;;;;;25.98;14.80;;;3.50;68.40;;;;;;4928211;28;114996;-81
2022/11/28 03:27:01;;;;;;;24.38;14.18;;;3.40;68.50;;;;;;5006768;28;114451;-81
2022/11/28 03:29:35;;;;;;;22.40;13.10;;;3.40;68.40;;;;;;4989046;28;115119;-81
2022/11/28 03:32:10;;;;;;;23.13;15.13;;;3.30;68.50;;;;;;5006467;28;115128;-80
2022/11/28 03:34:40;;;;;;;22.48;13.13;;;3.20;68.70;;;;;;5003108;28;114760;-79
2022/11/28 03:37:10;;;;;;;22.58;13.30;;;3.30;68.80;;;;;;5010908;28;114259;-79
2022/11/28 03:39:40;;;;;;;24.23;14.25;;;3.30;68.70;;;;;;5010747;28;114729;-79
2022/11/28 03:42:15;;;;;;;24.00;14.45;;;3.30;68.40;;;;;;5009805;28;115660;-80
2022/11/28 03:44:56;;;;;;;22.20;13.10;;;3.20;68.60;;;;;;4991504;28;117198;-80
2022/11/28 03:47:25;;;;;;;22.40;13.18;;;3.10;68.80;;;;;;4986974;28;114415;-80
2022/11/28 03:49:53;;;;;;;22.73;12.40;;;3.10;69.00;;;;;;5003750;28;114748;-81
2022/11/28 03:52:30;;;;;;;20.98;12.63;;;3.10;68.90;;;;;;4973088;28;115076;-80
2022/11/28 03:55:22;;;;;;;23.45;12.55;;;3.10;69.00;;;;;;4988781;28;114646;-80
2022/11/28 03:58:04;;;;;;;20.08;11.98;;;3.10;69.10;;;;;;4985339;28;114566;-80
2022/11/28 04:00:35;;;;;;;24.98;14.02;;;3.10;69.20;;;;;;4999579;28;114336;-80
2022/11/28 04:03:20;;;;;;;24.70;13.07;;;3.20;69.20;;;;;;4989114;28;115064;-80
2022/11/28 04:06:00;;;;;;;26.27;13.13;;;3.20;69.30;;;;;;4970623;28;114635;-80
2022/11/28 04:08:36;;;;;;;23.95;12.88;;;3.20;69.20;;;;;;4999177;28;114449;-80
2022/11/28 04:11:11;;;;;;;22.15;13.23;;;3.20;69.10;;;;;;4986639;28;114368;-81
2022/11/28 04:14:03;;;;;;;24.13;13.20;;;3.20;69.30;;;;;;4989462;28;115029;-81
2022/11/28 04:16:40;;;;;;;24.33;13.48;;;3.20;69.20;;;;;;4972987;28;115397;-81
2022/11/28 04:19:49;;;;;;;22.48;12.25;;;3.20;69.20;;;;;;4973057;28;114883;-80
2022/11/28 04:22:26;;;;;;;26.60;13.68;;;3.20;69.20;;;;;;4989421;28;114763;-81
2022/11/28 04:24:56;;;;;;;23.60;13.82;;;3.20;69.50;;;;;;4985461;28;115031;-81
2022/11/28 04:27:29;;;;;;;27.27;13.20;;;3.20;69.30;;;;;;4987841;28;114734;-81
2022/11/28 04:29:58;;;;;;;26.20;14.07;;;3.20;69.30;;;;;;4972592;28;114378;-81
2022/11/28 04:32:28;;;;;;;25.58;15.13;;;3.20;69.40;;;;;;4970012;28;114594;-82
2022/11/28 04:35:09;;;;;;;22.00;13.40;;;3.20;69.50;;;;;;4986463;28;115070;-81
2022/11/28 04:37:47;;;;;;;25.58;15.10;;;3.20;69.30;;;;;;4969851;28;114743;-81
2022/11/28 04:40:14;;;;;;;26.23;14.05;;;3.10;69.30;;;;;;4985897;28;114784;-80
2022/11/28 04:42:48;;;;;;;25.33;14.32;;;3.10;69.30;;;;;;4988425;28;114650;-82
2022/11/28 04:45:32;;;;;;;21.30;13.10;;;3.00;69.20;;;;;;4966671;28;115134;-81
2022/11/28 04:47:59;;;;;;;27.67;14.18;;;2.90;69.40;;;;;;4988629;28;115111;-81
2022/11/28 04:50:54;;;;;;;29.33;15.98;;;2.90;69.50;;;;;;5005189;28;114338;-81
2022/11/28 04:53:33;;;;;;;27.83;15.90;;;2.90;69.50;;;;;;4982176;28;114614;-80
2022/11/28 04:56:15;;;;;;;28.08;14.93;;;2.90;69.70;;;;;;4988640;28;115110;-81
2022/11/28 04:58:44;;;;;;;29.00;16.80;;;2.80;69.90;;;;;;4966481;28;115029;-80
2022/11/28 05:01:17;;;;;;;30.25;17.20;;;2.80;70.10;;;;;;4985759;28;114506;-80
2022/11/28 05:03:45;;;;;;;28.03;15.77;;;2.80;70.00;;;;;;4989128;28;114417;-80
2022/11/28 05:06:25;;;;;;;32.28;18.05;;;2.80;69.90;;;;;;4999962;28;119017;-80
2022/11/28 05:08:52;;;;;;;28.92;15.75;;;2.80;70.20;;;;;;5027962;28;114672;-80
2022/11/28 05:11:20;;;;;;;27.73;15.93;;;2.70;70.30;;;;;;5011779;28;114777;-80
2022/11/28 05:13:47;;;;;;;29.05;16.63;;;2.70;70.80;;;;;;5019473;27;114718;-80
2022/11/28 05:16:14;;;;;;;28.40;16.02;;;2.70;70.80;;;;;;5009013;28;115536;-80
2022/11/28 05:18:42;;;;;;;27.17;16.92;;;2.70;70.80;;;;;;4989014;28;114632;-80
2022/11/28 05:21:10;;;;;;;27.05;15.63;;;2.70;71.00;;;;;;5008111;28;114585;-81
2022/11/28 05:23:42;;;;;;;28.73;16.40;;;2.70;70.80;;;;;;5008575;28;115591;-81
2022/11/28 05:26:20;;;;;;;30.90;17.83;;;2.70;70.70;;;;;;4972082;28;115178;-82
2022/11/28 05:28:48;;;;;;;31.92;17.02;;;2.80;70.50;;;;;;5008784;28;114651;-81
2022/11/28 05:31:17;;;;;;;34.83;18.55;;;2.70;70.50;;;;;;4988750;28;119853;-82
2022/11/28 05:33:45;;;;;;;34.83;17.90;;;2.70;70.40;;;;;;4973574;28;119342;-81
2022/11/28 05:36:12;;;;;;;44.75;21.30;;;2.70;70.40;;;;;;5007644;28;115316;-80
2022/11/28 05:38:40;;;;;;;33.08;18.23;;;2.70;70.30;;;;;;5008830;28;114745;-80
2022/11/28 05:41:07;;;;;;;34.33;19.00;;;2.70;70.40;;;;;;5008914;28;114646;-81
2022/11/28 05:43:34;;;;;;;36.67;20.08;;;2.70;70.60;;;;;;4991926;28;115380;-80
2022/11/28 05:46:06;;;;;;;35.60;18.73;;;2.70;70.40;;;;;;4970729;28;120024;-79
2022/11/28 05:48:34;;;;;;;33.83;20.58;;;2.70;70.40;;;;;;5007802;28;114703;-80
2022/11/28 05:51:04;;;;;;;37.88;21.73;;;2.70;70.50;;;;;;5008262;28;114544;-81
2022/11/28 05:53:31;;;;;;;36.67;21.73;;;2.70;70.40;;;;;;5008625;28;114445;-81
2022/11/28 05:55:58;;;;;;;37.38;20.75;;;2.70;70.40;;;;;;5016767;28;117032;-81
2022/11/28 05:58:26;;;;;;;37.50;21.65;;;2.70;70.50;;;;;;5025976;28;116091;-81
2022/11/28 06:00:53;;;;;;;36.17;21.23;;;2.70;70.50;;;;;;5009402;28;114821;-80
2022/11/28 06:03:20;;;;;;;35.05;20.60;;;2.70;70.60;;;;;;5009445;28;114219;-81
2022/11/28 06:05:47;;;;;;;38.30;23.02;;;2.60;70.60;;;;;;5007536;28;115503;-80
2022/11/28 06:08:15;;;;;;;52.17;28.08;;;2.60;70.50;;;;;;5023576;27;114339;-80
2022/11/28 06:10:42;;;;;;;45.33;25.33;;;2.70;70.60;;;;;;5008415;28;114395;-82
2022/11/28 06:13:10;;;;;;;44.38;24.63;;;2.60;70.40;;;;;;5009120;28;114279;-81
2022/11/28 06:15:37;;;;;;;38.40;22.30;;;2.70;70.70;;;;;;5020052;28;115124;-81
2022/11/28 06:18:05;;;;;;;35.60;20.40;;;2.60;70.90;;;;;;4995822;28;118608;-81
2022/11/28 06:20:34;;;;;;;33.45;20.38;;;2.60;70.60;;;;;;5024412;27;114673;-82
2022/11/28 06:23:01;;;;;;;31.33;19.30;;;2.50;70.80;;;;;;5009577;28;114508;-82
2022/11/28 06:25:29;;;;;;;32.63;20.10;;;2.50;71.20;;;;;;5006374;28;116483;-81
2022/11/28 06:27:56;;;;;;;31.98;19.35;;;2.50;71.00;;;;;;5006832;28;114911;-81
2022/11/28 06:30:23;;;;;;;30.77;20.48;;;2.60;70.90;;;;;;5008318;28;114490;-82
2022/11/28 06:32:50;;;;;;;32.83;21.10;;;2.60;70.60;;;;;;4991687;28;114517;-81
2022/11/28 06:35:17;;;;;;;33.72;19.77;;;2.60;70.30;;;;;;5008009;28;115128;-81
2022/11/28 06:37:44;;;;;;;37.13;20.92;;;2.60;70.50;;;;;;4989679;28;114721;-82
2022/11/28 06:40:12;;;;;;;32.95;20.75;;;2.60;70.70;;;;;;5008849;28;114344;-81
2022/11/28 06:42:39;;;;;;;41.40;22.20;;;2.70;70.50;;;;;;5013929;28;114501;-81
2022/11/28 06:45:10;;;;;;;34.83;21.48;;;2.70;70.30;;;;;;5019758;28;115115;-81
2022/11/28 06:47:37;;;;;;;40.17;23.35;;;2.70;70.40;;;;;;5005661;28;114886;-81
2022/11/28 06:50:07;;;;;;;38.50;21.67;;;2.70;70.30;;;;;;5015720;28;114755;-80
2022/11/28 06:52:35;;;;;;;34.15;20.90;;;2.70;70.30;;;;;;5008138;28;114707;-81
2022/11/28 06:55:02;;;;;;;45.53;26.13;;;2.70;70.60;;;;;;5006895;28;115040;-80
2022/11/28 06:57:31;;;;;;;46.25;26.60;;;2.70;70.30;;;;;;5006484;28;114681;-81
2022/11/28 06:59:58;;;;;;;33.83;22.00;;;2.70;70.30;;;;;;5006862;28;114455;-81
2022/11/28 07:02:26;;;;;;;42.42;25.67;;;2.80;70.40;;;;;;5007372;28;114820;-80
2022/11/28 07:04:53;;;;;;;40.22;23.60;;;2.80;70.40;;;;;;5006291;28;116295;-81
2022/11/28 07:07:20;;;;;;;36.38;23.05;;;2.80;70.40;;;;;;5006855;28;115256;-80
2022/11/28 07:09:49;;;;;;;48.10;26.55;;;2.80;70.20;;;;;;5007832;28;114657;-81
2022/11/28 07:12:16;;;;;;;61.97;33.10;;;2.80;70.10;;;;;;5008827;28;114717;-81
2022/11/28 07:14:46;;;;;;;59.00;30.73;;;2.80;70.10;;;;;;5003689;28;115433;-81
2022/11/28 07:17:14;;;;;;;60.75;29.67;;;2.90;69.90;;;;;;5002709;28;117591;-81
2022/11/28 07:19:41;;;;;;;54.75;31.05;;;2.80;69.90;;;;;;5006837;27;118018;-81
2022/11/28 07:22:10;;;;;;;52.28;33.83;;;2.80;69.70;;;;;;4992861;28;114842;-80
2022/11/28 07:24:37;;;;;;;62.75;35.25;;;2.80;69.70;;;;;;5011536;28;115046;-80
2022/11/28 07:27:04;;;;;;;49.92;32.00;;;2.70;69.70;;;;;;5004561;28;118516;-81
2022/11/28 07:29:35;;;;;;;56.13;34.03;;;2.80;69.90;;;;;;4987659;28;114693;-81
2022/11/28 07:32:04;;;;;;;63.30;37.13;;;2.80;70.00;;;;;;5004638;28;114557;-81
2022/11/28 07:34:32;;;;;;;53.40;32.55;;;2.80;69.80;;;;;;5004348;28;115498;-80
2022/11/28 07:36:59;;;;;;;59.53;34.72;;;2.90;70.00;;;;;;5004497;28;114603;-80
2022/11/28 07:39:26;;;;;;;66.28;35.42;;;2.90;69.90;;;;;;5005461;27;114518;-80
2022/11/28 07:41:53;;;;;;;59.28;35.47;;;3.00;70.00;;;;;;4971628;28;114783;-80
2022/11/28 07:44:21;;;;;;;63.90;38.90;;;3.10;69.90;;;;;;5003178;27;115013;-80
2022/11/28 07:46:48;;;;;;;66.75;38.47;;;3.20;69.80;;;;;;5003318;28;115842;-81
2022/11/28 07:49:15;;;;;;;63.45;40.30;;;3.30;69.60;;;;;;5004157;28;114614;-81
2022/11/28 07:51:43;;;;;;;59.22;35.28;;;3.40;69.40;;;;;;4989671;28;114593;-82
2022/11/28 07:54:10;;;;;;;61.60;36.72;;;3.50;69.30;;;;;;5013134;28;115038;-81
2022/11/28 07:56:37;;;;;;;62.05;35.45;;;3.60;69.30;;;;;;5015380;28;114492;-80
2022/11/28 07:59:24;;;;;;;55.70;34.90;;;3.60;69.20;;;;;;5013931;28;114712;-80
2022/11/28 08:01:52;;;;;;;48.83;32.00;;;3.70;69.20;;;;;;5005321;28;114752;-81
2022/11/28 08:04:20;;;;;;;55.50;33.00;;;3.80;69.10;;;;;;5011953;27;115088;-81
2022/11/28 08:06:47;;;;;;;50.60;29.67;;;3.80;69.20;;;;;;5010710;28;117073;-81
2022/11/28 08:09:14;;;;;;;47.00;25.88;;;4.00;69.20;;;;;;5025206;27;114766;-81
2022/11/28 08:11:41;;;;;;;47.80;29.08;;;4.10;69.20;;;;;;5025131;27;114676;-81
2022/11/28 08:14:09;;;;;;;44.97;25.33;;;4.20;69.80;;;;;;5024353;28;115155;-82
2022/11/28 08:16:39;;;;;;;40.80;24.05;;;4.30;70.00;;;;;;5005535;28;115570;-81
2022/11/28 08:19:07;;;;;;;35.58;21.35;;;4.40;69.80;;;;;;5026107;28;114390;-81
2022/11/28 08:21:34;;;;;;;34.05;21.55;;;4.60;69.70;;;;;;5026456;28;114399;-82
2022/11/28 08:24:02;;;;;;;38.60;22.70;;;4.70;69.20;;;;;;5013360;28;115127;-81
2022/11/28 08:26:31;;;;;;;30.02;18.27;;;4.70;68.70;;;;;;4988458;28;115037;-83
2022/11/28 08:29:00;;;;;;;27.58;16.85;;;4.90;68.30;;;;;;4987149;28;114513;-81
2022/11/28 08:31:33;;;;;;;28.52;15.55;;;5.10;67.70;;;;;;5004810;28;114582;-82
2022/11/28 08:34:01;;;;;;;25.95;15.45;;;5.10;66.00;;;;;;4986457;28;118030;-82
2022/11/28 08:36:29;;;;;;;22.10;13.63;;;5.00;66.30;;;;;;4986209;28;118690;-82
2022/11/28 08:38:59;;;;;;;22.20;13.13;;;4.90;66.20;;;;;;5003437;28;114464;-81
2022/11/28 08:41:46;;;;;;;17.92;11.35;;;4.80;66.40;;;;;;5005503;28;114526;-82
2022/11/28 08:44:13;;;;;;;21.60;12.32;;;4.90;65.80;;;;;;4990471;28;115151;-82
2022/11/28 08:46:40;;;;;;;18.60;11.30;;;4.90;65.50;;;;;;5007903;28;116533;-81
2022/11/28 08:49:07;;;;;;;21.98;11.50;;;4.80;64.90;;;;;;5007397;28;114685;-81
2022/11/28 08:51:35;;;;;;;16.40;10.32;;;4.80;65.70;;;;;;5007538;28;114569;-82
2022/11/28 08:54:04;;;;;;;14.73;8.38;;;4.70;64.90;;;;;;4977937;28;117754;-81
2022/11/28 08:56:31;;;;;;;15.13;9.82;;;4.70;65.30;;;;;;5006323;28;115004;-81
2022/11/28 08:58:59;;;;;;;15.93;9.70;;;4.70;65.00;;;;;;5009151;28;114328;-81
2022/11/28 09:01:26;;;;;;;13.65;9.60;;;4.70;64.80;;;;;;5009162;28;114459;-81
2022/11/28 09:03:54;;;;;;;18.88;10.45;;;4.70;65.40;;;;;;4993337;28;115539;-81
2022/11/28 09:06:21;;;;;;;16.48;10.07;;;4.70;64.40;;;;;;4992186;28;114628;-80
2022/11/28 09:08:49;;;;;;;16.02;10.27;;;4.70;65.00;;;;;;5006838;28;114412;-82
2022/11/28 09:11:17;;;;;;;17.15;10.48;;;4.70;64.70;;;;;;4988224;28;114571;-81
2022/11/28 09:13:45;;;;;;;10.60;5.65;;;4.70;64.60;;;;;;5006401;28;115122;-81
2022/11/28 09:16:13;;;;;;;15.82;9.27;;;4.60;64.40;;;;;;5006892;28;114670;-81
2022/11/28 09:18:40;;;;;;;15.98;9.77;;;4.60;64.10;;;;;;5007511;28;114692;-81
2022/11/28 09:21:09;;;;;;;11.85;7.03;;;4.40;64.50;;;;;;5007718;28;114782;-80
2022/11/28 09:23:37;;;;;;;14.88;8.73;;;4.40;64.50;;;;;;5008190;28;115110;-80
2022/11/28 09:26:19;;;;;;;16.80;8.93;;;4.40;64.40;;;;;;5006508;28;114581;-80
2022/11/28 09:28:46;;;;;;;14.93;7.07;;;4.30;64.60;;;;;;5009269;28;114452;-80
2022/11/28 09:31:14;;;;;;;15.60;9.60;;;4.30;64.80;;;;;;5009178;28;114651;-80
2022/11/28 09:33:43;;;;;;;13.27;7.18;;;4.30;64.70;;;;;;5004754;28;115859;-80
2022/11/28 09:36:18;;;;;;;16.73;9.60;;;4.40;64.30;;;;;;5007948;28;114872;-80
2022/11/28 09:38:47;;;;;;;15.00;9.00;;;4.30;64.80;;;;;;5000644;28;116306;-80
2022/11/28 09:42:02;;;;;;;15.25;8.07;;;4.30;64.90;;;;;;5007332;28;114430;-82
2022/11/28 09:44:40;;;;;;;16.02;9.68;;;4.30;64.40;;;;;;5006234;28;115556;-81
2022/11/28 09:47:27;;;;;;;14.98;9.88;;;4.20;64.80;;;;;;5006468;28;114537;-81
2022/11/28 09:50:09;;;;;;;11.60;7.00;;;4.30;65.00;;;;;;4990856;28;114717;-80
2022/11/28 09:52:45;;;;;;;16.92;9.15;;;4.30;65.10;;;;;;5006027;28;114415;-83
2022/11/28 09:55:28;;;;;;;16.02;9.48;;;4.30;64.90;;;;;;5004183;28;115800;-81
2022/11/28 09:57:55;;;;;;;15.02;9.02;;;4.40;65.20;;;;;;5005248;28;114873;-82
2022/11/28 10:00:33;;;;;;;16.00;8.40;;;4.40;65.00;;;;;;5007129;28;114447;-82
2022/11/28 10:03:24;;;;;;;17.02;9.95;;;4.50;64.70;;;;;;5004117;28;114480;-81
2022/11/28 10:06:27;;;;;;;16.83;8.55;;;4.50;64.80;;;;;;5026533;28;115263;-81
2022/11/28 10:09:37;;;;;;;16.17;10.05;;;4.60;64.80;;;;;;5014033;28;114617;-80
2022/11/28 10:12:23;;;;;;;15.73;9.90;;;4.60;64.50;;;;;;5003412;28;114489;-82
2022/11/28 10:15:21;;;;;;;15.18;9.05;;;4.70;64.40;;;;;;5007514;28;114695;-81
2022/11/28 10:18:00;;;;;;;14.05;9.02;;;4.70;64.00;;;;;;5004704;28;115155;-82
2022/11/28 10:20:40;;;;;;;13.27;8.77;;;4.70;64.10;;;;;;5007312;28;114586;-81
2022/11/28 10:23:37;;;;;;;15.60;8.30;;;4.80;64.00;;;;;;5007323;28;114502;-81
2022/11/28 10:26:38;;;;;;;15.43;9.25;;;4.80;63.30;;;;;;4988459;28;114476;-81
2022/11/28 10:29:50;;;;;;;15.18;9.38;;;4.90;62.80;;;;;;4999891;28;115548;-81
2022/11/28 10:32:20;;;;;;;15.32;9.88;;;4.90;62.80;;;;;;4999878;28;114697;-80
2022/11/28 10:35:16;;;;;;;16.00;10.25;;;4.90;63.30;;;;;;4991410;28;115132;-82
2022/11/28 10:37:51;;;;;;;17.13;9.05;;;4.90;62.90;;;;;;4991749;28;116102;-80
2022/11/28 10:40:53;;;;;;;14.20;8.38;;;4.90;62.90;;;;;;5009596;28;116894;-82
2022/11/28 10:43:47;;;;;;;15.30;9.80;;;4.90;62.10;;;;;;5007887;28;115897;-81
2022/11/28 10:46:28;;;;;;;15.83;8.20;;;5.00;62.20;;;;;;5003271;28;115493;-81
2022/11/28 10:49:45;;;;;;;17.60;8.20;;;4.90;62.50;;;;;;4990876;28;114831;-82
2022/11/28 10:52:31;;;;;;;15.45;8.70;;;4.90;62.70;;;;;;5003776;28;115323;-81
2022/11/28 10:55:37;;;;;;;15.63;8.77;;;5.00;62.00;;;;;;4972594;28;116265;-82
2022/11/28 10:58:26;;;;;;;;;;;5.00;61.40;;;;;;4989029;28;119458;-82
2022/11/28 11:00:54;;;;;;;15.15;8.73;;;4.80;62.00;;;;;;5007493;28;114459;-82
2022/11/28 11:03:30;;;;;;;13.93;8.35;;;4.80;61.60;;;;;;4965048;28;118878;-81
2022/11/28 11:05:58;;;;;;;19.27;9.57;;;4.90;61.40;;;;;;4988603;28;114768;-81
2022/11/28 11:08:27;;;;;;;15.18;8.32;;;4.90;62.00;;;;;;5006431;28;114574;-81
2022/11/28 11:11:46;;;;;;;16.92;8.88;;;4.90;62.10;;;;;;5006843;28;114428;-81
2022/11/28 11:14:13;;;;;;;16.00;9.45;;;5.10;62.00;;;;;;4997273;28;115228;-82
2022/11/28 11:16:55;;;;;;;12.98;7.75;;;5.10;62.20;;;;;;4988130;28;118956;-81
2022/11/28 11:19:41;;;;;;;12.05;7.97;;;5.20;61.30;;;;;;5005697;28;114567;-82
2022/11/28 11:22:30;;;;;;;15.15;8.95;;;5.20;61.00;;;;;;4973080;28;114545;-81
2022/11/28 11:25:16;;;;;;;14.50;8.90;;;5.20;61.10;;;;;;4973241;28;116703;-82
2022/11/28 11:27:56;;;;;;;12.77;7.72;;;5.20;61.30;;;;;;5006247;28;114642;-81
2022/11/28 11:30:34;;;;;;;15.00;9.20;;;5.20;61.30;;;;;;5006163;28;114389;-82
2022/11/28 11:33:06;;;;;;;14.40;8.57;;;5.10;61.30;;;;;;5006398;28;115771;-82
2022/11/28 11:35:41;;;;;;;17.90;10.70;;;5.20;61.00;;;;;;4972222;28;118469;-81
2022/11/28 11:38:22;;;;;;;16.70;10.30;;;5.10;61.10;;;;;;4973997;28;114801;-81
2022/11/28 11:40:51;;;;;;;15.30;8.93;;;5.10;61.80;;;;;;5005805;28;114394;-82
2022/11/28 11:43:45;;;;;;;15.63;9.20;;;5.10;61.20;;;;;;5006374;28;114698;-82
2022/11/28 11:46:14;;;;;;;15.88;8.52;;;5.20;61.10;;;;;;4985264;28;115119;-82
2022/11/28 11:48:46;;;;;;;14.68;9.77;;;5.10;61.40;;;;;;5002589;28;114996;-81
2022/11/28 11:51:27;;;;;;;15.30;8.82;;;5.20;61.40;;;;;;4986147;28;114345;-81
2022/11/28 11:54:04;;;;;;;13.30;8.40;;;5.20;61.00;;;;;;5006155;28;116088;-82
2022/11/28 11:56:36;;;;;;;14.10;7.80;;;5.20;61.40;;;;;;5010565;28;114990;-81
2022/11/28 11:59:14;;;;;;;14.52;9.18;;;5.20;61.60;;;;;;5003764;28;116155;-80
2022/11/28 12:01:43;;;;;;;16.17;9.40;;;5.20;61.50;;;;;;4971103;28;114269;-82
2022/11/28 12:04:18;;;;;;;14.20;8.60;;;5.20;61.20;;;;;;4989097;28;114704;-81
2022/11/28 12:07:08;;;;;;;15.65;8.18;;;5.10;61.10;;;;;;4987241;28;115057;-81
2022/11/28 12:09:44;;;;;;;13.65;8.10;;;5.10;61.10;;;;;;4986021;28;114914;-82
2022/11/28 12:12:36;;;;;;;12.70;7.78;;;5.20;61.50;;;;;;4990720;28;114569;-82
2022/11/28 12:15:33;;;;;;;14.65;9.30;;;5.20;61.40;;;;;;5006966;28;114567;-82
2022/11/28 12:18:22;;;;;;;12.50;6.72;;;5.10;61.10;;;;;;5000920;28;114886;-80
2022/11/28 12:21:12;;;;;;;15.18;8.40;;;5.10;61.10;;;;;;5005036;28;115095;-81
2022/11/28 12:24:05;;;;;;;14.93;8.55;;;5.00;61.30;;;;;;5007093;28;114418;-80
2022/11/28 12:27:14;;;;;;;15.10;8.27;;;4.90;61.30;;;;;;5002245;28;114643;-80
2022/11/28 12:30:16;;;;;;;15.20;8.93;;;5.00;61.30;;;;;;5004344;28;115128;-81
2022/11/28 12:32:50;;;;;;;15.68;9.02;;;4.90;61.40;;;;;;5005853;28;114723;-82
2022/11/28 12:35:40;;;;;;;15.43;8.32;;;5.00;61.40;;;;;;5005737;28;114391;-82
2022/11/28 12:38:22;;;;;;;12.20;6.97;;;5.00;61.40;;;;;;5005916;28;114466;-82
2022/11/28 12:41:40;;;;;;;13.43;7.82;;;5.10;61.30;;;;;;5004946;28;115608;-81
2022/11/28 12:45:03;;;;;;;11.07;6.80;;;5.10;60.90;;;;;;4993696;28;114695;-81
2022/11/28 12:48:03;;;;;;;11.98;6.30;;;5.20;60.60;;;;;;5006285;28;114362;-81
2022/11/28 12:50:46;;;;;;;15.48;8.10;;;5.30;60.40;;;;;;4989617;28;114712;-81
2022/11/28 12:54:01;;;;;;;14.88;8.27;;;5.40;60.50;;;;;;4988056;28;115233;-80
2022/11/28 12:56:58;;;;;;;16.48;7.78;;;5.40;60.20;;;;;;5001809;28;115967;-81
2022/11/28 12:59:58;;;;;;;14.45;7.25;;;5.40;60.50;;;;;;5005416;28;114671;-81
2022/11/28 13:02:49;;;;;;;15.60;8.75;;;5.40;59.80;;;;;;5006402;28;114585;-81
2022/11/28 13:05:36;;;;;;;16.08;7.57;;;5.40;60.20;;;;;;5004995;28;115120;-81
2022/11/28 13:08:43;;;;;;;14.35;8.40;;;5.50;60.00;;;;;;5004420;28;114668;-81
2022/11/28 13:12:02;;;;;;;12.38;7.25;;;5.50;59.80;;;;;;4988606;28;114485;-81
2022/11/28 13:14:37;;;;;;;14.25;7.72;;;5.50;59.80;;;;;;5005201;28;114446;-81
2022/11/28 13:17:37;;;;;;;15.85;9.02;;;5.40;59.80;;;;;;5004034;28;115216;-80
2022/11/28 13:20:31;;;;;;;15.35;8.73;;;5.40;59.70;;;;;;5006646;28;114931;-81